createdAt,value
2023-03-06T00:02:01.553Z,26.52
2023-03-06T00:04:30.955Z,22.45
2023-03-06T00:06:57.757Z,21.10
2023-03-06T00:09:24.453Z,24.88
2023-03-06T00:11:51.024Z,19.70
2023-03-06T00:14:17.618Z,19.48
2023-03-06T00:16:44.237Z,23.05
2023-03-06T00:19:12.805Z,23.25
2023-03-06T00:21:45.390Z,18.77
2023-03-06T00:24:16.101Z,18.67
2023-03-06T00:26:43.397Z,21.98
2023-03-06T00:29:10.075Z,22.65
2023-03-06T00:31:37.105Z,21.40
2023-03-06T00:34:06.656Z,27.10
2023-03-06T00:36:36.006Z,21.95
2023-03-06T00:39:02.639Z,20.60
2023-03-06T00:41:29.314Z,19.73
2023-03-06T00:44:01.024Z,18.30
2023-03-06T00:46:27.656Z,31.80
2023-03-06T00:48:54.248Z,18.33
2023-03-06T00:51:23.331Z,19.60
2023-03-06T00:53:52.516Z,19.88
2023-03-06T00:56:20.066Z,21.67
2023-03-06T00:58:46.843Z,19.63
2023-03-06T01:01:13.840Z,18.95
2023-03-06T01:03:42.432Z,20.55
2023-03-06T01:06:09.205Z,20.17
2023-03-06T01:08:35.938Z,19.10
2023-03-06T01:11:02.638Z,19.88
2023-03-06T01:13:29.389Z,25.33
2023-03-06T01:16:07.432Z,20.58
2023-03-06T01:18:34.335Z,22.63
2023-03-06T01:21:00.997Z,22.55
2023-03-06T01:23:27.704Z,18.92
2023-03-06T01:25:56.987Z,20.48
2023-03-06T01:28:24.055Z,21.20
2023-03-06T01:30:53.461Z,23.02
2023-03-06T01:33:20.216Z,18.90
2023-03-06T01:35:46.967Z,17.65
2023-03-06T01:38:14.378Z,21.17
2023-03-06T01:40:41.070Z,24.90
2023-03-06T01:43:26.670Z,21.08
2023-03-06T01:46:12.065Z,21.08
2023-03-06T01:48:39.702Z,25.45
2023-03-06T01:51:06.505Z,23.85
2023-03-06T01:53:33.424Z,22.67
2023-03-06T01:56:00.145Z,18.40
2023-03-06T01:58:26.945Z,19.70
2023-03-06T02:00:53.640Z,19.80
2023-03-06T02:03:26.762Z,18.83
2023-03-06T02:05:57.396Z,20.48
2023-03-06T02:08:24.992Z,18.80
2023-03-06T02:11:00.922Z,19.02
2023-03-06T02:13:27.650Z,51.25
2023-03-06T02:15:54.420Z,22.55
2023-03-06T02:18:21.123Z,19.77
2023-03-06T02:20:54.220Z,20.33
2023-03-06T02:23:32.221Z,19.33
2023-03-06T02:26:00.998Z,24.58
2023-03-06T02:28:27.881Z,31.58
2023-03-06T02:30:56.468Z,18.48
2023-03-06T02:33:27.366Z,22.98
2023-03-06T02:36:02.911Z,22.65
2023-03-06T02:38:42.262Z,20.05
2023-03-06T02:41:10.726Z,20.88
2023-03-06T02:43:43.490Z,20.30
2023-03-06T02:46:12.735Z,17.50
2023-03-06T02:48:39.515Z,18.85
2023-03-06T02:51:06.779Z,24.00
2023-03-06T02:53:36.451Z,22.38
2023-03-06T02:56:03.153Z,27.23
2023-03-06T02:58:29.880Z,22.20
2023-03-06T03:00:56.501Z,19.70
2023-03-06T03:03:23.292Z,23.45
2023-03-06T03:05:50.113Z,21.17
2023-03-06T03:08:16.883Z,20.17
2023-03-06T03:10:43.670Z,19.65
2023-03-06T03:13:12.649Z,26.25
2023-03-06T03:15:39.354Z,21.20
2023-03-06T03:18:06.020Z,17.70
2023-03-06T03:20:33.060Z,15.27
2023-03-06T03:23:02.932Z,18.50
2023-03-06T03:25:32.363Z,19.98
2023-03-06T03:28:04.553Z,15.88
2023-03-06T03:30:33.827Z,17.63
2023-03-06T03:33:03.587Z,19.35
2023-03-06T03:35:33.105Z,14.77
2023-03-06T03:37:59.987Z,14.82
2023-03-06T03:40:28.959Z,19.48
2023-03-06T03:42:55.528Z,14.70
2023-03-06T03:45:27.741Z,17.38
2023-03-06T03:47:57.047Z,27.58
2023-03-06T03:50:25.468Z,17.40
2023-03-06T03:52:54.446Z,20.83
2023-03-06T03:55:21.210Z,25.45
2023-03-06T03:57:47.907Z,18.45
2023-03-06T04:00:18.410Z,22.08
2023-03-06T04:02:45.271Z,21.90
2023-03-06T04:05:14.916Z,27.05
2023-03-06T04:07:42.731Z,20.98
2023-03-06T04:10:10.792Z,23.88
2023-03-06T04:12:37.833Z,24.13
2023-03-06T04:15:10.351Z,28.58
2023-03-06T04:17:42.172Z,25.45
2023-03-06T04:20:14.516Z,23.85
2023-03-06T04:22:44.338Z,23.80
2023-03-06T04:25:15.524Z,19.08
2023-03-06T04:27:42.148Z,16.42
2023-03-06T04:30:09.397Z,17.27
2023-03-06T04:32:36.126Z,25.90
2023-03-06T04:35:05.458Z,16.30
2023-03-06T04:37:32.192Z,16.13
2023-03-06T04:39:58.872Z,24.42
2023-03-06T04:42:25.535Z,19.17
2023-03-06T04:44:52.284Z,19.90
2023-03-06T04:47:19.419Z,16.52
2023-03-06T04:49:46.537Z,22.50
2023-03-06T04:52:16.064Z,21.58
2023-03-06T04:54:46.855Z,21.02
2023-03-06T04:57:14.281Z,23.80
2023-03-06T04:59:40.899Z,23.50
2023-03-06T05:02:07.740Z,25.92
2023-03-06T05:04:38.699Z,25.08
2023-03-06T05:07:05.456Z,26.02
2023-03-06T05:09:38.252Z,29.13
2023-03-06T05:12:08.858Z,21.90
2023-03-06T05:14:38.184Z,20.55
2023-03-06T05:17:04.850Z,17.60
2023-03-06T05:19:31.398Z,20.85
2023-03-06T05:21:58.091Z,24.17
2023-03-06T05:24:24.774Z,31.15
2023-03-06T05:26:51.408Z,21.23
2023-03-06T05:29:21.326Z,34.92
2023-03-06T05:31:47.995Z,36.45
2023-03-06T05:34:16.120Z,32.88
2023-03-06T05:36:43.327Z,23.63
2023-03-06T05:39:10.069Z,21.80
2023-03-06T05:41:36.671Z,21.77
2023-03-06T05:44:03.333Z,25.15
2023-03-06T05:46:30.008Z,23.17
2023-03-06T05:48:57.918Z,36.47
2023-03-06T05:51:27.840Z,21.77
2023-03-06T05:53:54.448Z,39.47
2023-03-06T05:56:23.438Z,23.98
2023-03-06T05:58:52.563Z,26.75
2023-03-06T06:01:20.464Z,27.60
2023-03-06T06:03:47.669Z,36.03
2023-03-06T06:06:15.726Z,27.70
2023-03-06T06:08:45.042Z,27.00
2023-03-06T06:11:13.289Z,35.78
2023-03-06T06:13:40.666Z,24.25
2023-03-06T06:16:19.477Z,32.10
2023-03-06T06:18:46.510Z,20.67
2023-03-06T06:21:15.942Z,19.05
2023-03-06T06:23:42.647Z,25.90
2023-03-06T06:26:11.691Z,19.40
2023-03-06T06:28:38.345Z,30.05
2023-03-06T06:31:12.346Z,30.98
2023-03-06T06:33:41.805Z,53.55
2023-03-06T06:36:21.693Z,31.73
2023-03-06T06:38:49.665Z,29.00
2023-03-06T06:44:08.444Z,39.10
2023-03-06T06:47:20.913Z,30.20
2023-03-06T06:49:25.904Z,23.45
2023-03-06T06:51:52.622Z,30.70
2023-03-06T06:54:25.173Z,46.58
2023-03-06T06:56:52.177Z,26.05
2023-03-06T06:59:22.334Z,38.08
2023-03-06T07:01:51.636Z,16.23
2023-03-06T07:04:21.322Z,17.85
2023-03-06T07:06:50.568Z,15.15
2023-03-06T07:09:20.188Z,30.58
2023-03-06T07:11:46.823Z,21.58
2023-03-06T07:14:13.837Z,19.55
2023-03-06T07:16:42.237Z,18.05
2023-03-06T07:19:10.955Z,20.25
2023-03-06T07:21:37.671Z,19.10
2023-03-06T07:24:05.982Z,17.48
2023-03-06T07:26:34.649Z,19.27
2023-03-06T07:29:03.830Z,17.45
2023-03-06T07:31:32.320Z,29.38
2023-03-06T07:33:59.056Z,18.95
2023-03-06T07:36:28.083Z,24.58
2023-03-06T07:38:57.598Z,22.15
2023-03-06T07:41:24.259Z,30.35
2023-03-06T07:43:53.346Z,21.85
2023-03-06T07:46:20.036Z,21.13
2023-03-06T07:48:46.658Z,13.73
2023-03-06T07:51:19.085Z,20.00
2023-03-06T07:53:46.668Z,18.13
2023-03-06T07:56:13.725Z,21.80
2023-03-06T07:58:43.382Z,20.70
2023-03-06T08:01:18.089Z,24.10
2023-03-06T08:03:44.831Z,21.77
2023-03-06T08:06:32.334Z,16.17
2023-03-06T08:08:59.807Z,16.83
2023-03-06T08:11:32.412Z,15.57
2023-03-06T08:13:59.548Z,15.13
2023-03-06T08:16:29.647Z,19.10
2023-03-06T08:18:59.707Z,17.23
2023-03-06T08:21:29.383Z,16.45
2023-03-06T08:23:56.314Z,16.23
2023-03-06T08:26:30.980Z,15.05
2023-03-06T08:28:59.823Z,19.13
2023-03-06T08:31:29.532Z,15.07
2023-03-06T08:33:59.896Z,16.40
2023-03-06T08:36:35.252Z,18.90
2023-03-06T08:39:05.183Z,14.40
2023-03-06T08:41:33.475Z,12.10
2023-03-06T08:44:00.337Z,18.13
2023-03-06T08:46:28.870Z,16.92
2023-03-06T12:31:52.421Z,12.80
2023-03-06T18:13:53.001Z,55.75
2023-03-06T18:16:26.268Z,78.55
2023-03-06T18:18:58.146Z,52.00
2023-03-06T18:21:25.174Z,49.10
2023-03-06T18:23:55.119Z,58.22
2023-03-06T18:26:24.569Z,50.60
2023-03-06T18:29:00.650Z,56.65
2023-03-06T18:31:32.336Z,74.07
2023-03-06T18:34:08.996Z,55.65
2023-03-06T18:36:36.998Z,60.22
2023-03-06T18:39:10.173Z,68.88
2023-03-06T18:41:37.317Z,59.22
2023-03-06T18:44:04.720Z,72.78
2023-03-06T18:46:36.771Z,75.28
2023-03-06T18:49:06.500Z,60.70
2023-03-06T18:51:33.916Z,68.43
2023-03-06T18:54:02.084Z,79.32
2023-03-06T18:56:31.221Z,75.75
2023-03-06T18:59:02.744Z,65.55
2023-03-06T19:01:36.479Z,55.67
2023-03-06T19:04:04.522Z,55.47
2023-03-06T19:06:34.497Z,54.85
2023-03-06T19:09:02.437Z,71.47
2023-03-06T19:11:30.071Z,77.15
2023-03-06T19:14:00.201Z,90.88
2023-03-06T19:16:33.210Z,89.45
2023-03-06T19:18:59.975Z,89.10
2023-03-06T19:21:29.861Z,75.85
2023-03-06T19:23:57.417Z,64.60
2023-03-06T19:26:27.164Z,64.85
2023-03-06T19:29:00.929Z,68.72
2023-03-06T19:31:32.520Z,55.30
2023-03-06T19:34:02.349Z,72.15
2023-03-06T19:36:33.697Z,57.60
2023-03-06T19:39:05.386Z,45.42
2023-03-06T19:41:36.415Z,48.35
2023-03-06T19:44:05.023Z,49.75
2023-03-06T19:46:32.241Z,47.80
2023-03-06T19:49:05.278Z,47.10
2023-03-06T19:51:37.204Z,49.72
2023-03-06T19:54:04.972Z,69.28
2023-03-06T19:56:35.982Z,60.78
2023-03-06T19:59:02.700Z,57.22
2023-03-06T20:01:29.398Z,53.20
2023-03-06T20:03:59.163Z,61.63
2023-03-06T20:06:29.921Z,62.70
2023-03-06T20:09:00.348Z,66.63
2023-03-06T20:11:31.983Z,59.45
2023-03-06T20:14:06.600Z,83.07
2023-03-06T20:16:37.329Z,77.95
2023-03-06T20:19:10.696Z,75.82
2023-03-06T20:21:40.639Z,62.97
2023-03-06T20:24:11.289Z,80.45
2023-03-06T20:26:40.172Z,69.85
2023-03-06T20:29:06.863Z,62.40
2023-03-06T20:31:37.757Z,51.25
2023-03-06T20:34:05.038Z,61.83
2023-03-06T20:36:37.226Z,62.35
2023-03-06T20:39:06.738Z,95.03
2023-03-06T20:41:36.320Z,105.55
2023-03-06T20:44:04.531Z,88.15
2023-03-06T20:46:31.714Z,48.92
2023-03-06T20:49:00.285Z,48.95
2023-03-06T20:51:31.518Z,44.88
2023-03-06T20:54:01.032Z,62.00
2023-03-06T20:56:30.627Z,50.15
2023-03-06T20:58:57.867Z,51.53
2023-03-06T21:01:33.801Z,48.42
2023-03-06T21:04:07.119Z,71.82
2023-03-06T21:06:37.283Z,45.85
2023-03-06T21:09:07.460Z,56.42
2023-03-06T21:11:36.756Z,63.13
2023-03-06T21:14:03.421Z,51.55
2023-03-06T21:16:30.507Z,53.05
2023-03-06T21:19:00.393Z,56.65
2023-03-06T21:21:30.783Z,56.80
2023-03-06T21:23:59.007Z,48.05
2023-03-06T21:26:28.687Z,59.53
2023-03-06T21:29:03.007Z,53.95
2023-03-06T21:31:36.859Z,64.40
2023-03-06T21:34:05.243Z,83.38
2023-03-06T21:36:32.181Z,73.78
2023-03-06T21:38:58.891Z,55.97
2023-03-06T21:41:30.684Z,63.17
2023-03-06T21:43:59.664Z,57.70
2023-03-06T21:46:27.837Z,46.67
2023-03-06T21:48:54.632Z,44.42
2023-03-06T21:51:23.771Z,52.05
2023-03-06T21:53:53.500Z,54.78
2023-03-06T21:56:29.904Z,52.72
2023-03-06T21:58:59.769Z,45.63
2023-03-06T22:01:28.750Z,122.13
2023-03-06T22:03:55.807Z,62.40
2023-03-06T22:06:25.495Z,57.92
2023-03-06T22:08:52.939Z,66.32
2023-03-06T22:11:23.280Z,61.22
2023-03-06T22:13:53.592Z,52.40
2023-03-06T22:16:23.854Z,55.97
2023-03-06T22:18:52.057Z,62.22
2023-03-06T22:21:21.897Z,60.50
2023-03-06T22:23:52.238Z,58.25
2023-03-06T22:26:19.696Z,55.75
2023-03-06T22:28:46.931Z,55.47
2023-03-06T22:31:18.212Z,66.50
2023-03-06T22:33:47.604Z,62.67
2023-03-06T22:36:15.817Z,62.33
2023-03-06T22:38:45.174Z,65.00
2023-03-06T22:41:16.523Z,67.78
2023-03-06T22:43:43.773Z,60.00
2023-03-06T22:46:15.357Z,57.60
2023-03-06T22:48:42.997Z,58.78
2023-03-06T22:51:15.552Z,60.20
2023-03-06T22:53:43.154Z,67.25
2023-03-06T22:56:12.317Z,66.60
2023-03-06T22:58:41.522Z,44.85
2023-03-06T23:01:10.822Z,68.13
2023-03-06T23:03:38.751Z,68.00
2023-03-06T23:06:14.530Z,60.92
2023-03-06T23:08:43.156Z,49.22
2023-03-06T23:11:12.553Z,50.03
2023-03-06T23:13:39.629Z,53.03
2023-03-06T23:16:07.605Z,52.00
2023-03-06T23:18:39.650Z,48.55
2023-03-06T23:21:09.116Z,53.67
2023-03-06T23:23:37.012Z,48.60
2023-03-06T23:26:10.537Z,54.08
2023-03-06T23:28:40.386Z,49.47
2023-03-06T23:31:08.255Z,49.63
2023-03-06T23:33:35.274Z,48.00
2023-03-06T23:36:08.632Z,53.08
2023-03-06T23:38:38.382Z,49.58
2023-03-06T23:41:11.633Z,62.83
2023-03-06T23:43:38.578Z,52.55
2023-03-06T23:46:07.095Z,47.97
2023-03-06T23:48:37.281Z,45.92
2023-03-06T23:51:11.865Z,42.80
2023-03-06T23:53:38.532Z,34.22
2023-03-06T23:56:11.166Z,40.22
2023-03-06T23:58:42.186Z,47.55
